Time;durP1;ratioP1;P1;durP2;ratioP2;P2;SDS_P1;SDS_P2;PMS_P1;PMS_P2;Temp;Humidity;BMP_temperature;BMP_pressure;BME280_temperature;BME280_humidity;BME280_pressure;Samples;Min_cycle;Max_cycle;Signal;HPM_P1;HPM_P2
2021/03/07 00:00:42;;;;;;;9.45;4.25;;;16.90;56.10;;;;;;5075367;28;20078;-55
2021/03/07 00:03:07;;;;;;;9.32;4.63;;;16.90;56.10;;;;;;5073063;28;20032;-53
2021/03/07 00:05:33;;;;;;;9.30;4.22;;;16.90;56.20;;;;;;5070083;28;20139;-54
2021/03/07 00:07:59;;;;;;;8.93;4.30;;;16.90;56.20;;;;;;5072363;28;20099;-54
2021/03/07 00:10:24;;;;;;;8.70;3.80;;;16.90;56.20;;;;;;5072220;28;20105;-53
2021/03/07 00:12:50;;;;;;;8.85;3.90;;;16.80;56.20;;;;;;5083111;28;20028;-54
2021/03/07 00:15:18;;;;;;;8.38;3.90;;;16.80;56.30;;;;;;5078337;28;20027;-54
2021/03/07 00:17:44;;;;;;;8.75;3.70;;;16.80;56.30;;;;;;5067410;28;20483;-54
2021/03/07 00:20:12;;;;;;;7.78;3.90;;;16.70;56.20;;;;;;5093816;28;20039;-54
2021/03/07 00:22:39;;;;;;;7.18;3.97;;;16.70;56.30;;;;;;5082523;28;20043;-53
2021/03/07 00:25:06;;;;;;;9.63;3.53;;;16.70;56.40;;;;;;5076117;28;20028;-54
2021/03/07 00:27:32;;;;;;;7.78;3.92;;;16.60;56.40;;;;;;5089146;28;20028;-53
2021/03/07 00:29:58;;;;;;;7.68;3.67;;;16.60;56.40;;;;;;5095280;28;20027;-55
2021/03/07 00:32:23;;;;;;;8.27;3.80;;;16.60;56.40;;;;;;5081725;28;20051;-56
2021/03/07 00:34:49;;;;;;;8.43;3.53;;;16.60;56.40;;;;;;5074811;28;20112;-53
2021/03/07 00:37:14;;;;;;;11.68;4.05;;;16.50;56.50;;;;;;5084664;28;20158;-54
2021/03/07 00:39:40;;;;;;;7.55;3.92;;;16.50;56.60;;;;;;5078096;28;20027;-54
2021/03/07 00:42:06;;;;;;;8.65;3.90;;;16.50;56.50;;;;;;5094777;28;20503;-56
2021/03/07 00:44:32;;;;;;;6.70;3.30;;;16.50;56.50;;;;;;5085858;28;20101;-54
2021/03/07 00:46:57;;;;;;;5.63;3.20;;;16.50;56.60;;;;;;5081425;28;20035;-53
2021/03/07 00:49:26;;;;;;;7.15;3.28;;;16.50;56.60;;;;;;5074557;28;20044;-52
2021/03/07 00:51:52;;;;;;;6.72;3.40;;;16.40;56.50;;;;;;5050938;28;20498;-53
2021/03/07 00:54:17;;;;;;;7.53;3.40;;;16.40;56.60;;;;;;5056079;28;20147;-54
2021/03/07 00:56:43;;;;;;;8.45;3.45;;;16.40;56.60;;;;;;5074120;28;20146;-55
2021/03/07 00:59:09;;;;;;;8.75;3.33;;;16.40;56.50;;;;;;5089893;28;20077;-54
2021/03/07 01:01:34;;;;;;;6.93;3.40;;;16.30;56.60;;;;;;5082713;28;20111;-52
2021/03/07 01:04:00;;;;;;;6.13;3.10;;;16.30;56.50;;;;;;5080490;28;20512;-53
2021/03/07 01:06:26;;;;;;;7.45;3.90;;;16.30;56.60;;;;;;5074676;28;20032;-53
2021/03/07 01:08:51;;;;;;;6.97;3.42;;;16.30;56.50;;;;;;5075154;28;20060;-56
2021/03/07 01:11:17;;;;;;;6.53;3.25;;;16.30;56.40;;;;;;5074821;28;20032;-52
2021/03/07 01:13:43;;;;;;;7.40;3.60;;;16.30;56.50;;;;;;5081295;28;20077;-53
2021/03/07 01:16:09;;;;;;;7.00;3.55;;;16.30;56.60;;;;;;5071934;28;20028;-55
2021/03/07 01:18:34;;;;;;;8.18;3.10;;;16.30;56.60;;;;;;5064005;28;20020;-54
2021/03/07 01:21:00;;;;;;;6.72;3.20;;;16.20;56.50;;;;;;5092422;28;20066;-56
2021/03/07 01:23:27;;;;;;;7.43;3.30;;;16.20;56.50;;;;;;5070306;28;20431;-54
2021/03/07 01:25:52;;;;;;;6.13;3.10;;;16.20;56.50;;;;;;5066629;28;20036;-56
2021/03/07 01:28:18;;;;;;;6.82;3.03;;;16.20;56.40;;;;;;5055997;28;20024;-54
2021/03/07 01:30:43;;;;;;;6.45;3.53;;;16.20;56.40;;;;;;5073786;28;20032;-54
2021/03/07 01:33:09;;;;;;;5.50;3.03;;;16.20;56.30;;;;;;5083307;28;20028;-55
2021/03/07 01:35:35;;;;;;;6.38;3.13;;;16.20;56.30;;;;;;5073155;28;20485;-55
2021/03/07 01:38:01;;;;;;;6.72;3.35;;;16.20;56.40;;;;;;5073765;28;20029;-56
2021/03/07 01:40:35;;;;;;;6.75;3.03;;;16.20;56.40;;;;;;5068465;28;20028;-54
2021/03/07 01:43:02;;;;;;;6.75;3.40;;;16.20;56.30;;;;;;5073377;28;20629;-53
2021/03/07 01:45:31;;;;;;;6.47;3.20;;;16.10;56.30;;;;;;5073442;28;20037;-54
2021/03/07 01:48:02;;;;;;;6.45;3.10;;;16.10;56.20;;;;;;5088687;28;20530;-55
2021/03/07 01:50:30;;;;;;;6.57;3.05;;;16.10;56.30;;;;;;5075425;28;20034;-55
2021/03/07 01:52:56;;;;;;;6.05;3.30;;;16.10;56.30;;;;;;5075057;28;20584;-54
2021/03/07 01:55:24;;;;;;;6.00;3.00;;;16.10;56.30;;;;;;5073368;28;20035;-54
2021/03/07 01:57:58;;;;;;;5.97;3.03;;;16.10;56.30;;;;;;5086892;28;20103;-54
2021/03/07 02:00:23;;;;;;;6.22;2.97;;;16.10;56.20;;;;;;5087132;28;20032;-54
2021/03/07 02:02:49;;;;;;;7.43;3.33;;;16.10;56.20;;;;;;5074480;28;20043;-53
2021/03/07 02:05:17;;;;;;;6.03;3.00;;;16.00;56.20;;;;;;5082869;28;20043;-54
2021/03/07 02:07:43;;;;;;;6.40;3.28;;;16.00;56.20;;;;;;5073947;28;20039;-55
2021/03/07 02:10:16;;;;;;;6.47;3.03;;;16.00;56.20;;;;;;5073163;28;20052;-56
2021/03/07 02:12:42;;;;;;;7.22;3.35;;;16.00;56.10;;;;;;5056421;28;20060;-54
2021/03/07 02:15:11;;;;;;;7.40;3.15;;;15.90;56.10;;;;;;5073038;28;20050;-53
2021/03/07 02:17:37;;;;;;;6.35;3.28;;;16.00;56.20;;;;;;5067203;28;20031;-54
2021/03/07 02:20:05;;;;;;;5.70;2.88;;;15.90;56.20;;;;;;5086103;28;20499;-54
2021/03/07 02:22:35;;;;;;;6.70;2.90;;;15.90;56.10;;;;;;5072479;28;20024;-54
2021/03/07 02:25:04;;;;;;;6.32;2.83;;;15.90;56.10;;;;;;5073702;28;20074;-54
2021/03/07 02:27:30;;;;;;;5.22;2.97;;;15.90;56.10;;;;;;5073711;28;20525;-54
2021/03/07 02:29:56;;;;;;;7.20;3.20;;;15.90;56.10;;;;;;5091498;28;20028;-53
2021/03/07 02:32:25;;;;;;;5.72;2.75;;;15.90;56.20;;;;;;5090784;28;20028;-52
2021/03/07 02:35:00;;;;;;;7.50;3.10;;;15.90;56.10;;;;;;5059091;28;20028;-53
2021/03/07 02:37:26;;;;;;;8.82;3.55;;;15.90;56.20;;;;;;5063798;28;20020;-54
2021/03/07 02:39:53;;;;;;;7.50;2.92;;;15.80;56.10;;;;;;5092681;28;20410;-55
2021/03/07 02:42:22;;;;;;;5.82;3.00;;;15.80;56.10;;;;;;5092508;28;20028;-55
2021/03/07 02:44:58;;;;;;;6.68;3.42;;;15.80;56.10;;;;;;5074410;28;20110;-55
2021/03/07 02:47:27;;;;;;;7.03;3.00;;;15.80;56.20;;;;;;5062095;28;20028;-55
2021/03/07 02:49:56;;;;;;;7.70;2.95;;;15.80;56.20;;;;;;5076942;28;20483;-55
2021/03/07 02:52:23;;;;;;;6.25;2.97;;;15.80;56.20;;;;;;5084615;28;20039;-55
2021/03/07 02:54:51;;;;;;;7.65;2.85;;;15.80;56.20;;;;;;5064216;28;20039;-55
2021/03/07 02:57:19;;;;;;;7.15;3.25;;;15.80;56.30;;;;;;5078355;28;20029;-54
2021/03/07 02:59:49;;;;;;;5.78;2.97;;;15.70;56.20;;;;;;5072111;28;20074;-53
2021/03/07 03:02:16;;;;;;;5.82;3.10;;;15.70;56.30;;;;;;5072899;28;20495;-55
2021/03/07 03:04:42;;;;;;;7.03;3.13;;;15.70;56.30;;;;;;5079265;28;20095;-55
2021/03/07 03:07:08;;;;;;;7.20;3.40;;;15.70;56.30;;;;;;5079123;28;20044;-55
2021/03/07 03:09:35;;;;;;;6.05;3.17;;;15.70;56.40;;;;;;5071959;28;20025;-55
2021/03/07 03:12:01;;;;;;;6.68;3.35;;;15.70;56.40;;;;;;5071516;28;20028;-54
2021/03/07 03:14:27;;;;;;;6.40;2.90;;;15.70;56.40;;;;;;5054102;28;20440;-55
2021/03/07 03:16:58;;;;;;;12.80;3.10;;;15.70;56.30;;;;;;5075948;28;20139;-54
2021/03/07 03:19:26;;;;;;;9.40;3.53;;;15.60;56.40;;;;;;5071989;28;20396;-55
2021/03/07 03:21:53;;;;;;;5.78;2.63;;;15.70;56.40;;;;;;5067990;28;20490;-56
2021/03/07 03:24:19;;;;;;;7.22;3.13;;;15.60;56.50;;;;;;5085391;28;20107;-52
2021/03/07 03:26:45;;;;;;;6.43;2.90;;;15.60;56.40;;;;;;5074164;28;20510;-55
2021/03/07 03:29:10;;;;;;;6.63;3.13;;;15.60;56.50;;;;;;5064588;28;20036;-53
2021/03/07 03:31:36;;;;;;;5.63;2.83;;;15.60;56.50;;;;;;5087305;28;20107;-54
2021/03/07 03:34:05;;;;;;;7.18;2.72;;;15.60;56.70;;;;;;5053723;28;20017;-55
2021/03/07 03:36:32;;;;;;;5.30;2.53;;;15.50;56.70;;;;;;5071458;28;20028;-53
2021/03/07 03:39:06;;;;;;;5.15;2.95;;;15.50;56.70;;;;;;5086575;28;20047;-54
2021/03/07 03:41:35;;;;;;;6.97;2.92;;;15.50;56.70;;;;;;5077404;28;20227;-55
2021/03/07 03:44:06;;;;;;;5.70;2.80;;;15.50;56.70;;;;;;5089902;28;20471;-53
2021/03/07 03:46:36;;;;;;;6.03;3.10;;;15.50;56.70;;;;;;5084507;28;20024;-55
2021/03/07 03:49:09;;;;;;;6.47;2.85;;;15.50;56.70;;;;;;5072310;28;20082;-54
2021/03/07 03:51:38;;;;;;;6.57;2.60;;;15.50;56.80;;;;;;5073815;28;20108;-54
2021/03/07 03:54:05;;;;;;;6.13;2.88;;;15.50;56.80;;;;;;5053276;28;20024;-55
2021/03/07 03:56:32;;;;;;;6.97;2.95;;;15.40;56.80;;;;;;5056287;28;20074;-53
2021/03/07 03:59:00;;;;;;;5.65;2.80;;;15.40;57.30;;;;;;5071420;28;20028;-52
2021/03/07 04:01:26;;;;;;;6.43;2.60;;;15.40;56.80;;;;;;5082760;28;20020;-52
2021/03/07 04:03:53;;;;;;;5.38;2.67;;;15.40;56.90;;;;;;5053515;28;20031;-53
2021/03/07 04:06:23;;;;;;;4.72;2.55;;;15.40;56.90;;;;;;5072510;28;20079;-53
2021/03/07 04:08:51;;;;;;;7.43;2.80;;;15.30;56.90;;;;;;5071223;28;20103;-53
2021/03/07 04:11:17;;;;;;;6.45;3.10;;;15.30;56.80;;;;;;5075001;28;20031;-53
2021/03/07 04:13:43;;;;;;;5.38;3.10;;;15.30;56.90;;;;;;5071629;28;20500;-54
2021/03/07 04:16:09;;;;;;;5.22;2.50;;;15.30;57.00;;;;;;5086075;28;20029;-53
2021/03/07 04:18:35;;;;;;;6.85;2.92;;;15.30;57.00;;;;;;5085401;28;20039;-53
2021/03/07 04:21:01;;;;;;;5.10;2.40;;;15.30;57.00;;;;;;5085741;28;20438;-54
2021/03/07 04:23:27;;;;;;;6.50;2.60;;;15.30;57.00;;;;;;5091088;28;20029;-53
2021/03/07 04:25:53;;;;;;;5.95;2.88;;;15.30;57.00;;;;;;5088686;28;20032;-53
2021/03/07 04:28:19;;;;;;;5.45;2.80;;;15.20;57.00;;;;;;5084623;28;20036;-53
2021/03/07 04:30:45;;;;;;;6.13;2.65;;;15.30;57.10;;;;;;5089596;28;20024;-53
2021/03/07 04:33:11;;;;;;;4.65;2.58;;;15.30;57.10;;;;;;5083378;28;20078;-53
2021/03/07 04:35:38;;;;;;;6.32;2.40;;;15.20;57.10;;;;;;5070951;28;20037;-54
2021/03/07 04:38:06;;;;;;;6.25;2.70;;;15.20;57.10;;;;;;5070948;28;20590;-53
2021/03/07 04:40:33;;;;;;;5.50;2.65;;;15.20;57.10;;;;;;5053025;28;20384;-53
2021/03/07 04:43:00;;;;;;;6.03;3.05;;;15.20;57.20;;;;;;5088674;28;20554;-53
2021/03/07 04:45:26;;;;;;;6.47;2.90;;;15.20;57.20;;;;;;5091162;28;20036;-54
2021/03/07 04:47:52;;;;;;;6.13;3.15;;;15.20;57.20;;;;;;5075871;28;20479;-54
2021/03/07 04:50:17;;;;;;;4.90;2.50;;;15.20;57.30;;;;;;5070955;28;20032;-54
2021/03/07 04:52:43;;;;;;;5.28;2.60;;;15.10;57.20;;;;;;5072525;28;20028;-54
2021/03/07 04:55:10;;;;;;;5.68;2.42;;;15.10;57.30;;;;;;5084543;28;20106;-54
2021/03/07 04:57:36;;;;;;;5.65;2.65;;;15.10;57.30;;;;;;5089243;28;20032;-54
2021/03/07 05:00:05;;;;;;;5.15;2.50;;;15.10;57.40;;;;;;5077008;28;20051;-55
2021/03/07 05:02:31;;;;;;;5.60;2.80;;;15.10;57.30;;;;;;5075846;28;20060;-54
2021/03/07 05:04:56;;;;;;;4.85;2.42;;;15.10;57.40;;;;;;5074348;28;20063;-54
2021/03/07 05:07:22;;;;;;;5.00;2.47;;;15.10;57.40;;;;;;5079021;28;20037;-53
2021/03/07 05:09:48;;;;;;;6.40;2.50;;;15.00;57.30;;;;;;5063523;28;20032;-54
2021/03/07 05:12:13;;;;;;;5.90;2.50;;;15.00;57.40;;;;;;5087059;28;20039;-53
2021/03/07 05:14:39;;;;;;;6.45;2.45;;;15.00;57.40;;;;;;5088586;28;20364;-54
2021/03/07 05:17:04;;;;;;;5.22;2.30;;;15.00;57.50;;;;;;5076192;28;20032;-56
2021/03/07 05:19:30;;;;;;;5.45;2.35;;;15.00;57.40;;;;;;5077628;28;20032;-54
2021/03/07 05:21:55;;;;;;;5.25;2.20;;;15.00;57.40;;;;;;5085977;28;20036;-54
2021/03/07 05:24:21;;;;;;;5.45;2.30;;;15.00;57.40;;;;;;5076153;28;20027;-52
2021/03/07 05:26:46;;;;;;;5.20;2.50;;;15.00;57.50;;;;;;5084216;28;20024;-53
2021/03/07 05:29:12;;;;;;;4.72;2.05;;;15.00;57.40;;;;;;5066922;28;20038;-54
2021/03/07 05:31:38;;;;;;;6.55;2.47;;;15.00;57.50;;;;;;5092047;28;20237;-53
2021/03/07 05:34:03;;;;;;;6.15;2.25;;;15.00;57.40;;;;;;5078252;28;20525;-54
2021/03/07 05:36:29;;;;;;;5.15;2.40;;;15.00;57.50;;;;;;5073659;28;20028;-53
2021/03/07 05:38:54;;;;;;;4.93;2.17;;;14.90;57.50;;;;;;5078353;28;20039;-54
2021/03/07 05:41:20;;;;;;;4.68;2.17;;;14.90;57.60;;;;;;5087678;28;20411;-53
2021/03/07 05:43:48;;;;;;;6.78;2.33;;;14.90;57.60;;;;;;5073662;28;20025;-53
2021/03/07 05:46:14;;;;;;;6.38;2.10;;;14.90;57.60;;;;;;5079449;28;20028;-53
2021/03/07 05:48:40;;;;;;;6.20;2.40;;;14.90;57.60;;;;;;5084945;28;20033;-53
2021/03/07 05:51:11;;;;;;;5.05;2.30;;;14.90;57.60;;;;;;5073384;28;20479;-53
2021/03/07 05:53:37;;;;;;;5.38;2.13;;;14.90;57.60;;;;;;5089443;28;20402;-54
2021/03/07 05:56:03;;;;;;;6.00;2.60;;;14.90;57.60;;;;;;5091282;28;20021;-54
2021/03/07 05:58:28;;;;;;;5.45;2.40;;;14.90;57.60;;;;;;5074555;28;20513;-53
2021/03/07 06:00:55;;;;;;;4.70;2.30;;;14.90;57.60;;;;;;5087412;28;20085;-53
2021/03/07 06:03:22;;;;;;;7.00;2.53;;;14.90;57.70;;;;;;5089213;28;20406;-54
2021/03/07 06:05:51;;;;;;;5.40;2.30;;;14.90;57.70;;;;;;5093269;28;20039;-53
2021/03/07 06:08:17;;;;;;;5.72;2.30;;;14.90;57.70;;;;;;5091825;28;20047;-53
2021/03/07 06:10:43;;;;;;;6.25;2.42;;;14.80;57.60;;;;;;5092964;28;20526;-53
2021/03/07 06:13:10;;;;;;;5.47;2.50;;;14.80;57.70;;;;;;5091503;28;20032;-54
2021/03/07 06:15:37;;;;;;;5.05;2.10;;;14.80;57.60;;;;;;5085221;28;20066;-52
2021/03/07 06:18:16;;;;;;;5.10;2.33;;;14.80;57.70;;;;;;5072772;28;20089;-53
2021/03/07 06:20:42;;;;;;;4.88;2.08;;;14.80;57.70;;;;;;5073094;28;20070;-54
2021/03/07 06:23:09;;;;;;;6.88;2.40;;;14.80;57.60;;;;;;5070982;28;20027;-54
2021/03/07 06:25:49;;;;;;;7.22;2.30;;;14.80;57.70;;;;;;5071682;28;20081;-54
2021/03/07 06:28:26;;;;;;;5.47;2.30;;;14.90;59.10;;;;;;5072756;28;20479;-54
2021/03/07 06:30:53;;;;;;;4.80;1.95;;;14.80;57.60;;;;;;5072635;28;20024;-54
2021/03/07 06:33:39;;;;;;;5.50;2.00;;;14.80;57.80;;;;;;5072177;28;20020;-53
2021/03/07 06:36:18;;;;;;;4.72;1.95;;;14.70;57.90;;;;;;5072566;28;20451;-53
2021/03/07 06:38:48;;;;;;;3.65;1.88;;;14.70;58.00;;;;;;5072591;28;20029;-53
2021/03/07 06:41:16;;;;;;;5.88;2.15;;;14.70;58.10;;;;;;5051819;28;20024;-54
2021/03/07 06:43:42;;;;;;;6.38;2.20;;;14.70;58.00;;;;;;5071205;28;20030;-53
2021/03/07 06:46:24;;;;;;;4.95;2.03;;;14.70;58.20;;;;;;5072229;28;20027;-53
2021/03/07 06:48:50;;;;;;;4.38;1.90;;;14.70;58.20;;;;;;5072231;28;20036;-54
2021/03/07 06:51:25;;;;;;;4.45;2.00;;;14.70;58.20;;;;;;5063767;28;20036;-53
2021/03/07 06:53:50;;;;;;;4.40;2.10;;;14.70;58.30;;;;;;5053627;28;20099;-54
2021/03/07 06:56:39;;;;;;;5.50;2.00;;;14.70;58.30;;;;;;5071432;28;20096;-53
2021/03/07 06:59:15;;;;;;;9.07;2.17;;;14.70;58.40;;;;;;5071329;28;20555;-53
2021/03/07 07:01:54;;;;;;;8.05;2.75;;;14.70;58.40;;;;;;5052976;28;20025;-53
2021/03/07 07:04:21;;;;;;;5.30;2.58;;;14.70;58.40;;;;;;5071153;28;20074;-53
2021/03/07 07:07:04;;;;;;;7.38;2.75;;;14.70;58.50;;;;;;5066669;28;20492;-53
2021/03/07 07:09:30;;;;;;;8.90;2.35;;;14.70;58.60;;;;;;5051271;28;20091;-53
2021/03/07 07:11:56;;;;;;;5.63;2.15;;;14.70;58.60;;;;;;5070613;28;20025;-54
2021/03/07 07:14:39;;;;;;;7.15;2.65;;;14.70;58.60;;;;;;5069647;28;20024;-53
2021/03/07 07:20:27;;;;;;;6.97;1.80;;;14.70;58.60;;;;;;5059376;28;20032;-54
2021/03/07 07:22:53;;;;;;;5.25;1.80;;;14.80;59.00;;;;;;5066894;28;20020;-54
2021/03/07 07:25:38;;;;;;;9.35;4.30;;;14.80;58.70;;;;;;5063189;28;20491;-54
2021/03/07 07:28:03;;;;;;;7.97;3.00;;;14.80;58.90;;;;;;5066279;28;20147;-52
2021/03/07 07:30:29;;;;;;;6.53;2.90;;;14.70;58.80;;;;;;5069806;28;20530;-52
2021/03/07 07:36:28;;;;;;;6.05;1.90;;;14.80;58.80;;;;;;5064720;28;20081;-53
2021/03/07 07:38:56;;;;;;;6.30;2.08;;;14.80;58.80;;;;;;5066458;28;20024;-54
2021/03/07 21:28:34;;;;;;;18.77;7.35;;;18.30;52.10;;;;;;4885413;29;20100;-62
2021/03/07 21:31:00;;;;;;;13.23;7.03;;;18.20;52.00;;;;;;4897213;29;20407;-63
2021/03/07 21:33:25;;;;;;;12.57;6.65;;;18.20;52.10;;;;;;4897626;29;20747;-62
2021/03/07 21:35:51;;;;;;;12.70;6.57;;;18.20;52.10;;;;;;4894530;29;20035;-62
2021/03/07 21:38:16;;;;;;;11.07;6.95;;;18.20;52.10;;;;;;4896417;29;20029;-63
2021/03/07 21:40:42;;;;;;;13.85;7.18;;;18.20;52.10;;;;;;4898579;29;20046;-62
2021/03/07 21:43:08;;;;;;;11.80;6.55;;;18.10;52.10;;;;;;4898727;29;20047;-63
2021/03/07 21:45:33;;;;;;;13.25;6.80;;;18.00;52.10;;;;;;4898008;29;20035;-62
2021/03/07 21:47:59;;;;;;;12.48;6.80;;;18.10;52.10;;;;;;4896490;29;20518;-62
2021/03/07 21:50:24;;;;;;;13.38;6.68;;;18.00;52.10;;;;;;4882873;29;20678;-62
2021/03/07 21:52:50;;;;;;;13.52;6.75;;;18.00;52.10;;;;;;4898203;29;20039;-62
2021/03/07 21:55:15;;;;;;;11.30;6.35;;;18.00;52.10;;;;;;4897649;29;20025;-64
2021/03/07 21:57:41;;;;;;;12.00;6.63;;;17.90;52.00;;;;;;4897902;29;20045;-62
2021/03/07 22:00:08;;;;;;;15.32;6.45;;;17.90;52.00;;;;;;4891433;29;20025;-63
2021/03/07 22:02:34;;;;;;;10.20;6.20;;;17.90;52.60;;;;;;4895896;29;20040;-62
2021/03/07 22:04:59;;;;;;;10.10;6.40;;;17.90;52.10;;;;;;4894531;29;20110;-62
2021/03/07 22:07:25;;;;;;;10.20;6.35;;;17.90;52.10;;;;;;4888818;29;20080;-62
2021/03/07 22:09:50;;;;;;;10.77;6.32;;;17.90;52.10;;;;;;4897287;29;20033;-63
2021/03/07 22:12:16;;;;;;;11.77;6.88;;;17.80;52.00;;;;;;4891376;29;20052;-61
2021/03/07 22:14:41;;;;;;;11.88;6.82;;;17.80;52.00;;;;;;4894323;29;20092;-61
2021/03/07 22:17:07;;;;;;;9.68;6.25;;;17.80;52.10;;;;;;4898201;29;20025;-62
2021/03/07 22:19:32;;;;;;;12.88;7.10;;;17.80;52.10;;;;;;4893900;29;20035;-62
2021/03/07 22:21:58;;;;;;;10.15;6.72;;;17.70;52.00;;;;;;4897661;29;20041;-62
2021/03/07 22:24:23;;;;;;;10.75;7.05;;;17.70;52.10;;;;;;4897206;29;20044;-62
2021/03/07 22:26:49;;;;;;;11.82;6.93;;;17.70;52.00;;;;;;4895103;29;20037;-64
2021/03/07 22:29:14;;;;;;;9.80;6.88;;;17.70;52.00;;;;;;4897676;29;20044;-62
2021/03/07 22:31:40;;;;;;;10.70;6.90;;;17.70;52.60;;;;;;4897408;29;20032;-62
2021/03/07 22:34:05;;;;;;;12.85;6.85;;;17.70;52.10;;;;;;4897288;29;20028;-64
2021/03/07 22:36:31;;;;;;;11.73;6.93;;;17.70;52.10;;;;;;4896971;29;20021;-62
2021/03/07 22:38:56;;;;;;;10.85;6.50;;;17.60;52.00;;;;;;4893575;29;20104;-61
2021/03/07 22:41:23;;;;;;;11.38;6.55;;;17.60;52.00;;;;;;4896241;29;20052;-62
2021/03/07 22:43:48;;;;;;;9.93;6.65;;;17.60;52.00;;;;;;4897055;29;20033;-63
2021/03/07 22:46:14;;;;;;;9.32;6.30;;;17.60;52.10;;;;;;4886600;29;20047;-62
2021/03/07 22:48:39;;;;;;;11.63;7.03;;;17.50;52.00;;;;;;4896019;29;20092;-62
2021/03/07 22:51:06;;;;;;;13.45;6.85;;;17.60;52.10;;;;;;4892770;29;20032;-62
2021/03/07 22:53:31;;;;;;;11.13;7.03;;;17.50;52.10;;;;;;4889850;29;20362;-62
2021/03/07 22:55:57;;;;;;;10.25;6.38;;;17.50;52.10;;;;;;4896805;29;20043;-63
2021/03/07 22:58:22;;;;;;;11.48;7.45;;;17.50;52.10;;;;;;4896450;29;20060;-63
2021/03/07 23:00:48;;;;;;;10.35;7.13;;;17.50;52.10;;;;;;4895503;29;20547;-62
2021/03/07 23:03:14;;;;;;;12.50;7.07;;;17.50;52.10;;;;;;4896763;29;20384;-62
2021/03/07 23:05:40;;;;;;;10.50;7.05;;;17.40;52.00;;;;;;4896594;29;20052;-62
2021/03/07 23:08:05;;;;;;;11.68;7.40;;;17.50;52.10;;;;;;4891087;29;20068;-63
2021/03/07 23:10:31;;;;;;;11.80;6.85;;;17.40;52.00;;;;;;4892556;29;20112;-63
2021/03/07 23:12:57;;;;;;;11.85;7.50;;;17.40;52.00;;;;;;4896825;29;20488;-62
2021/03/07 23:15:24;;;;;;;14.60;7.28;;;17.40;52.00;;;;;;4896460;29;20165;-62
2021/03/07 23:17:51;;;;;;;12.35;7.25;;;17.40;52.10;;;;;;4894547;29;20024;-62
2021/03/07 23:20:20;;;;;;;10.52;6.78;;;17.30;52.00;;;;;;4889862;29;20036;-62
2021/03/07 23:22:45;;;;;;;10.25;7.25;;;17.30;52.00;;;;;;4894353;29;20032;-61
2021/03/07 23:25:19;;;;;;;12.05;7.18;;;17.30;52.00;;;;;;4896197;29;20043;-62
2021/03/07 23:27:46;;;;;;;12.55;7.05;;;17.30;52.10;;;;;;4895785;29;20044;-62
2021/03/07 23:30:15;;;;;;;12.70;7.03;;;17.30;52.10;;;;;;4896255;29;20109;-62
2021/03/07 23:32:41;;;;;;;11.73;7.70;;;17.20;52.10;;;;;;4895852;29;20029;-62
2021/03/07 23:35:08;;;;;;;11.27;7.30;;;17.30;52.10;;;;;;4895478;29;20039;-62
2021/03/07 23:37:34;;;;;;;11.68;7.30;;;17.20;52.10;;;;;;4881892;29;20025;-62
2021/03/07 23:40:00;;;;;;;10.85;7.05;;;17.20;52.10;;;;;;4892840;29;20021;-63
2021/03/07 23:42:25;;;;;;;16.35;7.88;;;17.20;52.10;;;;;;4888035;29;20040;-64
2021/03/07 23:44:51;;;;;;;10.95;7.45;;;17.20;52.10;;;;;;4895862;29;20032;-63
2021/03/07 23:47:16;;;;;;;10.82;6.97;;;17.20;52.20;;;;;;4893041;29;20047;-62
2021/03/07 23:49:42;;;;;;;14.77;7.93;;;17.10;52.10;;;;;;4895776;29;20035;-62
2021/03/07 23:52:07;;;;;;;13.25;7.68;;;17.10;52.10;;;;;;4896045;29;20036;-64
2021/03/07 23:54:33;;;;;;;13.00;7.70;;;17.10;52.10;;;;;;4884860;29;20034;-61
2021/03/07 23:56:58;;;;;;;12.15;8.15;;;17.10;52.10;;;;;;4890714;29;20067;-62
2021/03/07 23:59:24;;;;;;;11.98;7.57;;;17.10;52.10;;;;;;4895941;29;20082;-62
